PWSweather.com
Personal Weather Stations
Station Observations
KMNMADEL2
Andys Live Weather Stations, Madelia, MN 56062

Andys Live Weather StationsMadelia, MN 56062

Lat: 44.04636, Lon: -94.4163437

Elevation: 1006

Station Type: Wireless Davis Instruments Vantage Pro2 Plus

http://www.madeliasliveweather.com/

Latest ConditionsUpdated 1:25:02 PM CST Monday, Dec 22, 2014
Currently Today's Max Today's Min Today's Average
Temperature 38.4°F3.6°C 39.3°F4.1°C 37.9°F3.3°C 38.7°F3.7°C
Dew Point 36.3°F2.4°C 37.5°F3.1°C 36.1°F2.3°C 36.8°F2.7°C
Winds 7.0 mph SE11.3 kmh SE 16.0 mph SE25.7 kmh SE - 7.0 mph 11.3 kmh
Wind Gusts 14.0 mph22.5 kmh 22.0 mph35.4 kmh - -
Humidity 92% 93% 92% 93%
Pressure 29.52 in999.7 mb 29.68 in1005.1 mb 29.52 in999.7 mb -
Hour Temp Dew Point Humidity Winds Wind Gusts Pressure Precip Precip Rate Daily Precip Total
01:25 PM 38.4°F3.6°C 36.3°F2.4°C 92% 7.0 mph SE11.3 kmh SE 14.0 mph22.5 kmh 29.52 in999.7 mb 0.00 in0.0 mm 0.00 in/hr0.0 mm/hr 0.05 in1.3 mm
01:20 PM 38.5°F3.6°C 36.4°F2.4°C 92% 9.0 mph ESE14.5 kmh ESE 14.0 mph22.5 kmh 29.53 in1000.0 mb 0.00 in0.0 mm 0.00 in/hr0.0 mm/hr 0.05 in1.3 mm
01:15 PM 38.5°F3.6°C 36.4°F2.4°C 92% 7.0 mph SE11.3 kmh SE 13.0 mph20.9 kmh 29.52 in999.7 mb 0.00 in0.0 mm 0.00 in/hr0.0 mm/hr 0.05 in1.3 mm
01:10 PM 38.5°F3.6°C 36.4°F2.4°C 92% 6.0 mph SE9.7 kmh SE 12.0 mph19.3 kmh 29.53 in1000.0 mb 0.00 in0.0 mm 0.00 in/hr0.0 mm/hr 0.05 in1.3 mm
01:05 PM 38.5°F3.6°C 36.4°F2.4°C 92% 9.0 mph E14.5 kmh E 11.0 mph17.7 kmh 29.53 in1000.0 mb 0.00 in0.0 mm 0.00 in/hr0.0 mm/hr 0.05 in1.3 mm
01:00 PM 38.4°F3.6°C 36.3°F2.4°C 92% 6.0 mph SSE9.7 kmh SSE 10.0 mph16.1 kmh 29.53 in1000.0 mb 0.00 in0.0 mm 0.00 in/hr0.0 mm/hr 0.05 in1.3 mm
12:55 PM 38.4°F3.6°C 36.3°F2.4°C 92% 12.0 mph S19.3 kmh S 16.0 mph25.7 kmh 29.53 in1000.0 mb 0.00 in0.0 mm 0.00 in/hr0.0 mm/hr 0.05 in1.3 mm
12:50 PM 38.5°F3.6°C 36.4°F2.4°C 92% 6.0 mph SE9.7 kmh SE 16.0 mph25.7 kmh 29.53 in1000.0 mb 0.00 in0.0 mm 0.00 in/hr0.0 mm/hr 0.05 in1.3 mm
12:45 PM 38.5°F3.6°C 36.4°F2.4°C 92% 4.0 mph SE6.4 kmh SE 15.0 mph24.1 kmh 29.53 in1000.0 mb 0.00 in0.0 mm 0.00 in/hr0.0 mm/hr 0.05 in1.3 mm
12:40 PM 38.5°F3.6°C 36.4°F2.4°C 92% 5.0 mph SE8.0 kmh SE 15.0 mph24.1 kmh 29.53 in1000.0 mb 0.00 in0.0 mm 0.00 in/hr0.0 mm/hr 0.05 in1.3 mm
12:35 PM 38.5°F3.6°C 36.4°F2.4°C 92% 8.0 mph SE12.9 kmh SE 15.0 mph24.1 kmh 29.54 in1000.3 mb 0.00 in0.0 mm 0.00 in/hr0.0 mm/hr 0.05 in1.3 mm
12:30 PM 38.5°F3.6°C 36.4°F2.4°C 92% 5.0 mph SE8.0 kmh SE 8.0 mph12.9 kmh 29.54 in1000.3 mb 0.00 in0.0 mm 0.00 in/hr0.0 mm/hr 0.05 in1.3 mm
12:25 PM 38.5°F3.6°C 36.4°F2.4°C 92% 4.0 mph SE6.4 kmh SE 14.0 mph22.5 kmh 29.54 in1000.3 mb 0.00 in0.0 mm 0.00 in/hr0.0 mm/hr 0.05 in1.3 mm
12:20 PM 38.5°F3.6°C 36.4°F2.4°C 92% 7.0 mph SE11.3 kmh SE 14.0 mph22.5 kmh 29.54 in1000.3 mb 0.00 in0.0 mm 0.00 in/hr0.0 mm/hr 0.05 in1.3 mm
12:15 PM 38.5°F3.6°C 36.4°F2.4°C 92% 8.0 mph SE12.9 kmh SE 14.0 mph22.5 kmh 29.54 in1000.3 mb 0.00 in0.0 mm 0.00 in/hr0.0 mm/hr 0.05 in1.3 mm
12:10 PM 38.4°F3.6°C 36.3°F2.4°C 92% 10.0 mph SE16.1 kmh SE 13.0 mph20.9 kmh 29.55 in1000.7 mb 0.00 in0.0 mm 0.00 in/hr0.0 mm/hr 0.05 in1.3 mm
12:05 PM 38.5°F3.6°C 36.4°F2.4°C 92% 5.0 mph E8.0 kmh E 13.0 mph20.9 kmh 29.55 in1000.7 mb 0.00 in0.0 mm 0.00 in/hr0.0 mm/hr 0.05 in1.3 mm
12:00 PM 38.4°F3.6°C 36.3°F2.4°C 92% 5.0 mph SE8.0 kmh SE 10.0 mph16.1 kmh 29.55 in1000.7 mb 0.00 in0.0 mm 0.00 in/hr0.0 mm/hr 0.05 in1.3 mm
11:55 AM 38.4°F3.6°C 36.3°F2.4°C 92% 4.0 mph ESE6.4 kmh ESE 14.0 mph22.5 kmh 29.55 in1000.7 mb 0.01 in0.3 mm 0.00 in/hr0.0 mm/hr 0.05 in1.3 mm
11:50 AM 38.4°F3.6°C 36.3°F2.4°C 92% 9.0 mph SE14.5 kmh SE 13.0 mph20.9 kmh 29.55 in1000.7 mb 0.01 in0.3 mm 0.00 in/hr0.0 mm/hr 0.05 in1.3 mm
11:45 AM 38.3°F3.5°C 36.2°F2.3°C 92% 7.0 mph SSE11.3 kmh SSE 13.0 mph20.9 kmh 29.56 in1001.0 mb 0.01 in0.3 mm 0.00 in/hr0.0 mm/hr 0.05 in1.3 mm
11:40 AM 38.3°F3.5°C 36.2°F2.3°C 92% 4.0 mph SE6.4 kmh SE 13.0 mph20.9 kmh 29.56 in1001.0 mb 0.01 in0.3 mm 0.00 in/hr0.0 mm/hr 0.05 in1.3 mm
11:35 AM 38.4°F3.6°C 36.3°F2.4°C 92% 6.0 mph SE9.7 kmh SE 13.0 mph20.9 kmh 29.56 in1001.0 mb 0.01 in0.3 mm 0.00 in/hr0.0 mm/hr 0.05 in1.3 mm
11:30 AM 38.3°F3.5°C 36.2°F2.3°C 92% 5.0 mph SSE8.0 kmh SSE 9.0 mph14.5 kmh 29.56 in1001.0 mb 0.01 in0.3 mm 0.00 in/hr0.0 mm/hr 0.05 in1.3 mm
11:25 AM 38.3°F3.5°C 36.2°F2.3°C 92% 7.0 mph SE11.3 kmh SE 13.0 mph20.9 kmh 29.56 in1001.0 mb 0.01 in0.3 mm 0.00 in/hr0.0 mm/hr 0.05 in1.3 mm
11:20 AM 38.2°F3.4°C 36.1°F2.3°C 92% 7.0 mph SE11.3 kmh SE 12.0 mph19.3 kmh 29.57 in1001.4 mb 0.01 in0.3 mm 0.00 in/hr0.0 mm/hr 0.05 in1.3 mm
11:15 AM 38.2°F3.4°C 36.4°F2.4°C 93% 4.0 mph ESE6.4 kmh ESE 12.0 mph19.3 kmh 29.57 in1001.4 mb 0.01 in0.3 mm 0.00 in/hr0.0 mm/hr 0.05 in1.3 mm
11:10 AM 38.1°F3.4°C 36.3°F2.4°C 93% 6.0 mph SSE9.7 kmh SSE 12.0 mph19.3 kmh 29.57 in1001.4 mb 0.01 in0.3 mm 0.00 in/hr0.0 mm/hr 0.05 in1.3 mm
11:05 AM 38.1°F3.4°C 36.3°F2.4°C 93% 5.0 mph ESE8.0 kmh ESE 12.0 mph19.3 kmh 29.57 in1001.4 mb 0.01 in0.3 mm 0.00 in/hr0.0 mm/hr 0.05 in1.3 mm
11:00 AM 38.1°F3.4°C 36.3°F2.4°C 93% 5.0 mph SE8.0 kmh SE 11.0 mph17.7 kmh 29.58 in1001.7 mb 0.01 in0.3 mm 0.00 in/hr0.0 mm/hr 0.05 in1.3 mm
10:55 AM 38.1°F3.4°C 36.3°F2.4°C 93% 6.0 mph SE9.7 kmh SE 16.0 mph25.7 kmh 29.58 in1001.7 mb 0.02 in0.5 mm 0.00 in/hr0.0 mm/hr 0.05 in1.3 mm
10:50 AM 38.1°F3.4°C 36.3°F2.4°C 93% 3.0 mph ESE4.8 kmh ESE 16.0 mph25.7 kmh 29.58 in1001.7 mb 0.02 in0.5 mm 0.00 in/hr0.0 mm/hr 0.05 in1.3 mm
10:45 AM 38.1°F3.4°C 36.3°F2.4°C 93% 4.0 mph ESE6.4 kmh ESE 16.0 mph25.7 kmh 29.58 in1001.7 mb 0.02 in0.5 mm 0.00 in/hr0.0 mm/hr 0.05 in1.3 mm
10:40 AM 38.1°F3.4°C 36.3°F2.4°C 93% 6.0 mph SE9.7 kmh SE 15.0 mph24.1 kmh 29.58 in1001.7 mb 0.02 in0.5 mm 0.00 in/hr0.0 mm/hr 0.05 in1.3 mm
10:35 AM 38.1°F3.4°C 36.3°F2.4°C 93% 7.0 mph SE11.3 kmh SE 15.0 mph24.1 kmh 29.58 in1001.7 mb 0.02 in0.5 mm 0.12 in/hr3.0 mm/hr 0.05 in1.3 mm
10:30 AM 38.1°F3.4°C 36.3°F2.4°C 93% 8.0 mph ESE12.9 kmh ESE 11.0 mph17.7 kmh 29.58 in1001.7 mb 0.01 in0.3 mm 0.00 in/hr0.0 mm/hr 0.04 in1.0 mm
10:25 AM 38.2°F3.4°C 36.4°F2.4°C 93% 4.0 mph SE6.4 kmh SE 12.0 mph19.3 kmh 29.58 in1001.7 mb 0.01 in0.3 mm 0.00 in/hr0.0 mm/hr 0.04 in1.0 mm
10:20 AM 38.2°F3.4°C 36.4°F2.4°C 93% 9.0 mph SE14.5 kmh SE 12.0 mph19.3 kmh 29.59 in1002.0 mb 0.01 in0.3 mm 0.00 in/hr0.0 mm/hr 0.04 in1.0 mm
10:15 AM 38.2°F3.4°C 36.4°F2.4°C 93% 4.0 mph ESE6.4 kmh ESE 12.0 mph19.3 kmh 29.59 in1002.0 mb 0.01 in0.3 mm 0.00 in/hr0.0 mm/hr 0.04 in1.0 mm
10:10 AM 38.3°F3.5°C 36.5°F2.5°C 93% 9.0 mph ESE14.5 kmh ESE 11.0 mph17.7 kmh 29.59 in1002.0 mb 0.01 in0.3 mm 0.00 in/hr0.0 mm/hr 0.04 in1.0 mm
10:05 AM 38.3°F3.5°C 36.5°F2.5°C 93% 7.0 mph SE11.3 kmh SE 11.0 mph17.7 kmh 29.59 in1002.0 mb 0.01 in0.3 mm 0.00 in/hr0.0 mm/hr 0.04 in1.0 mm
10:00 AM 38.3°F3.5°C 36.5°F2.5°C 93% 4.0 mph SE6.4 kmh SE 8.0 mph12.9 kmh 29.59 in1002.0 mb 0.01 in0.3 mm 0.00 in/hr0.0 mm/hr 0.04 in1.0 mm
09:55 AM 38.4°F3.6°C 36.6°F2.6°C 93% 7.0 mph ESE11.3 kmh ESE 12.0 mph19.3 kmh 29.58 in1001.7 mb 0.02 in0.5 mm 0.00 in/hr0.0 mm/hr 0.04 in1.0 mm
09:50 AM 38.4°F3.6°C 36.6°F2.6°C 93% 4.0 mph SE6.4 kmh SE 12.0 mph19.3 kmh 29.59 in1002.0 mb 0.02 in0.5 mm 0.12 in/hr3.0 mm/hr 0.04 in1.0 mm
09:45 AM 38.5°F3.6°C 36.7°F2.6°C 93% 9.0 mph SE14.5 kmh SE 12.0 mph19.3 kmh 29.59 in1002.0 mb 0.01 in0.3 mm 0.00 in/hr0.0 mm/hr 0.03 in0.8 mm
09:40 AM 38.5°F3.6°C 36.7°F2.6°C 93% 9.0 mph SE14.5 kmh SE 12.0 mph19.3 kmh 29.58 in1001.7 mb 0.01 in0.3 mm 0.00 in/hr0.0 mm/hr 0.03 in0.8 mm
09:35 AM 38.6°F3.7°C 36.8°F2.7°C 93% 4.0 mph SE6.4 kmh SE 12.0 mph19.3 kmh 29.59 in1002.0 mb 0.01 in0.3 mm 0.00 in/hr0.0 mm/hr 0.03 in0.8 mm
09:30 AM 38.6°F3.7°C 36.8°F2.7°C 93% 7.0 mph ESE11.3 kmh ESE 10.0 mph16.1 kmh 29.58 in1001.7 mb 0.01 in0.3 mm 0.00 in/hr0.0 mm/hr 0.03 in0.8 mm
09:25 AM 38.6°F3.7°C 36.8°F2.7°C 93% 8.0 mph SE12.9 kmh SE 17.0 mph27.4 kmh 29.59 in1002.0 mb 0.01 in0.3 mm 0.00 in/hr0.0 mm/hr 0.03 in0.8 mm
09:20 AM 38.5°F3.6°C 36.7°F2.6°C 93% 10.0 mph SE16.1 kmh SE 16.0 mph25.7 kmh 29.59 in1002.0 mb 0.01 in0.3 mm 0.00 in/hr0.0 mm/hr 0.03 in0.8 mm
09:15 AM 38.5°F3.6°C 36.7°F2.6°C 93% 7.0 mph ESE11.3 kmh ESE 16.0 mph25.7 kmh 29.59 in1002.0 mb 0.01 in0.3 mm 0.00 in/hr0.0 mm/hr 0.03 in0.8 mm
09:10 AM 38.5°F3.6°C 36.7°F2.6°C 93% 11.0 mph SSE17.7 kmh SSE 16.0 mph25.7 kmh 29.59 in1002.0 mb 0.01 in0.3 mm 0.00 in/hr0.0 mm/hr 0.03 in0.8 mm
09:05 AM 38.5°F3.6°C 36.7°F2.6°C 93% 7.0 mph ESE11.3 kmh ESE 14.0 mph22.5 kmh 29.59 in1002.0 mb 0.01 in0.3 mm 0.00 in/hr0.0 mm/hr 0.03 in0.8 mm
09:00 AM 38.5°F3.6°C 36.7°F2.6°C 93% 2.0 mph SE3.2 kmh SE 14.0 mph22.5 kmh 29.59 in1002.0 mb 0.01 in0.3 mm 0.00 in/hr0.0 mm/hr 0.03 in0.8 mm
08:55 AM 38.6°F3.7°C 36.8°F2.7°C 93% 10.0 mph ESE16.1 kmh ESE 17.0 mph27.4 kmh 29.59 in1002.0 mb 0.01 in0.3 mm 0.00 in/hr0.0 mm/hr 0.03 in0.8 mm
08:50 AM 38.6°F3.7°C 36.8°F2.7°C 93% 7.0 mph SE11.3 kmh SE 17.0 mph27.4 kmh 29.59 in1002.0 mb 0.01 in0.3 mm 0.00 in/hr0.0 mm/hr 0.03 in0.8 mm
08:45 AM 38.6°F3.7°C 36.8°F2.7°C 93% 4.0 mph SE6.4 kmh SE 17.0 mph27.4 kmh 29.59 in1002.0 mb 0.01 in0.3 mm 0.00 in/hr0.0 mm/hr 0.03 in0.8 mm
08:40 AM 38.6°F3.7°C 36.8°F2.7°C 93% 5.0 mph SSE8.0 kmh SSE 17.0 mph27.4 kmh 29.59 in1002.0 mb 0.01 in0.3 mm 0.12 in/hr3.0 mm/hr 0.03 in0.8 mm
08:35 AM 38.7°F3.7°C 36.9°F2.7°C 93% 8.0 mph SE12.9 kmh SE 17.0 mph27.4 kmh 29.59 in1002.0 mb 0.00 in0.0 mm 0.00 in/hr0.0 mm/hr 0.02 in0.5 mm
08:30 AM 38.7°F3.7°C 36.9°F2.7°C 93% 6.0 mph S9.7 kmh S 7.0 mph11.3 kmh 29.59 in1002.0 mb 0.00 in0.0 mm 0.00 in/hr0.0 mm/hr 0.02 in0.5 mm
08:25 AM 38.6°F3.7°C 36.8°F2.7°C 93% 8.0 mph SSE12.9 kmh SSE 18.0 mph29.0 kmh 29.59 in1002.0 mb 0.00 in0.0 mm 0.00 in/hr0.0 mm/hr 0.02 in0.5 mm
08:20 AM 38.6°F3.7°C 36.8°F2.7°C 93% 6.0 mph SE9.7 kmh SE 18.0 mph29.0 kmh 29.59 in1002.0 mb 0.00 in0.0 mm 0.00 in/hr0.0 mm/hr 0.02 in0.5 mm
08:15 AM 38.6°F3.7°C 36.8°F2.7°C 93% 9.0 mph E14.5 kmh E 18.0 mph29.0 kmh 29.60 in1002.4 mb 0.00 in0.0 mm 0.00 in/hr0.0 mm/hr 0.02 in0.5 mm
08:10 AM 38.7°F3.7°C 36.9°F2.7°C 93% 11.0 mph S17.7 kmh S 18.0 mph29.0 kmh 29.60 in1002.4 mb 0.00 in0.0 mm 0.00 in/hr0.0 mm/hr 0.02 in0.5 mm
08:05 AM 38.7°F3.7°C 36.9°F2.7°C 93% 12.0 mph SE19.3 kmh SE 18.0 mph29.0 kmh 29.60 in1002.4 mb 0.00 in0.0 mm 0.00 in/hr0.0 mm/hr 0.02 in0.5 mm
08:00 AM 38.7°F3.7°C 36.9°F2.7°C 93% 6.0 mph SE9.7 kmh SE 14.0 mph22.5 kmh 29.60 in1002.4 mb 0.00 in0.0 mm 0.00 in/hr0.0 mm/hr 0.02 in0.5 mm
07:55 AM 38.7°F3.7°C 36.9°F2.7°C 93% 5.0 mph SE8.0 kmh SE 15.0 mph24.1 kmh 29.60 in1002.4 mb 0.00 in0.0 mm 0.00 in/hr0.0 mm/hr 0.02 in0.5 mm
07:50 AM 38.7°F3.7°C 36.9°F2.7°C 93% 4.0 mph SE6.4 kmh SE 15.0 mph24.1 kmh 29.60 in1002.4 mb 0.00 in0.0 mm 0.00 in/hr0.0 mm/hr 0.02 in0.5 mm
07:45 AM 38.7°F3.7°C 36.9°F2.7°C 93% 8.0 mph E12.9 kmh E 15.0 mph24.1 kmh 29.60 in1002.4 mb 0.00 in0.0 mm 0.00 in/hr0.0 mm/hr 0.02 in0.5 mm
07:40 AM 38.8°F3.8°C 37.0°F2.8°C 93% 9.0 mph SE14.5 kmh SE 15.0 mph24.1 kmh 29.60 in1002.4 mb 0.00 in0.0 mm 0.00 in/hr0.0 mm/hr 0.02 in0.5 mm
07:35 AM 38.8°F3.8°C 37.0°F2.8°C 93% 5.0 mph SE8.0 kmh SE 15.0 mph24.1 kmh 29.60 in1002.4 mb 0.00 in0.0 mm 0.00 in/hr0.0 mm/hr 0.02 in0.5 mm
07:30 AM 38.9°F3.8°C 37.1°F2.8°C 93% 8.0 mph S12.9 kmh S 13.0 mph20.9 kmh 29.60 in1002.4 mb 0.00 in0.0 mm 0.00 in/hr0.0 mm/hr 0.02 in0.5 mm
07:25 AM 38.9°F3.8°C 37.1°F2.8°C 93% 6.0 mph SSE9.7 kmh SSE 20.0 mph32.2 kmh 29.60 in1002.4 mb 0.01 in0.3 mm 0.00 in/hr0.0 mm/hr 0.02 in0.5 mm
07:20 AM 38.9°F3.8°C 37.1°F2.8°C 93% 9.0 mph S14.5 kmh S 20.0 mph32.2 kmh 29.60 in1002.4 mb 0.01 in0.3 mm 0.00 in/hr0.0 mm/hr 0.02 in0.5 mm
07:15 AM 38.9°F3.8°C 37.1°F2.8°C 93% 5.0 mph SE8.0 kmh SE 20.0 mph32.2 kmh 29.60 in1002.4 mb 0.01 in0.3 mm 0.00 in/hr0.0 mm/hr 0.02 in0.5 mm
07:10 AM 38.9°F3.8°C 37.1°F2.8°C 93% 4.0 mph SE6.4 kmh SE 20.0 mph32.2 kmh 29.61 in1002.7 mb 0.01 in0.3 mm 0.00 in/hr0.0 mm/hr 0.02 in0.5 mm
07:05 AM 38.9°F3.8°C 37.1°F2.8°C 93% 13.0 mph SE20.9 kmh SE 20.0 mph32.2 kmh 29.61 in1002.7 mb 0.01 in0.3 mm 0.00 in/hr0.0 mm/hr 0.02 in0.5 mm
07:00 AM 39.0°F3.9°C 37.2°F2.9°C 93% 10.0 mph SSE16.1 kmh SSE 12.0 mph19.3 kmh 29.60 in1002.4 mb 0.01 in0.3 mm 0.00 in/hr0.0 mm/hr 0.02 in0.5 mm
06:55 AM 39.0°F3.9°C 37.2°F2.9°C 93% 7.0 mph SSE11.3 kmh SSE 17.0 mph27.4 kmh 29.60 in1002.4 mb 0.02 in0.5 mm 0.00 in/hr0.0 mm/hr 0.02 in0.5 mm
06:50 AM 39.0°F3.9°C 37.2°F2.9°C 93% 7.0 mph SSE11.3 kmh SSE 17.0 mph27.4 kmh 29.61 in1002.7 mb 0.02 in0.5 mm 0.00 in/hr0.0 mm/hr 0.02 in0.5 mm
06:45 AM 39.0°F3.9°C 37.2°F2.9°C 93% 10.0 mph SE16.1 kmh SE 16.0 mph25.7 kmh 29.61 in1002.7 mb 0.02 in0.5 mm 0.00 in/hr0.0 mm/hr 0.02 in0.5 mm
06:40 AM 39.0°F3.9°C 37.2°F2.9°C 93% 8.0 mph SE12.9 kmh SE 16.0 mph25.7 kmh 29.61 in1002.7 mb 0.02 in0.5 mm 0.00 in/hr0.0 mm/hr 0.02 in0.5 mm
06:35 AM 39.0°F3.9°C 37.2°F2.9°C 93% 6.0 mph SE9.7 kmh SE 16.0 mph25.7 kmh 29.60 in1002.4 mb 0.02 in0.5 mm 0.00 in/hr0.0 mm/hr 0.02 in0.5 mm
06:30 AM 39.0°F3.9°C 37.2°F2.9°C 93% 10.0 mph SE16.1 kmh SE 16.0 mph25.7 kmh 29.60 in1002.4 mb 0.02 in0.5 mm 0.12 in/hr3.0 mm/hr 0.02 in0.5 mm
06:25 AM 39.0°F3.9°C 37.2°F2.9°C 93% 11.0 mph SSE17.7 kmh SSE 19.0 mph30.6 kmh 29.61 in1002.7 mb 0.01 in0.3 mm 0.00 in/hr0.0 mm/hr 0.01 in0.3 mm
06:20 AM 39.0°F3.9°C 37.2°F2.9°C 93% 13.0 mph SSE20.9 kmh SSE 19.0 mph30.6 kmh 29.60 in1002.4 mb 0.01 in0.3 mm 0.00 in/hr0.0 mm/hr 0.01 in0.3 mm
06:15 AM 39.0°F3.9°C 37.2°F2.9°C 93% 8.0 mph SSE12.9 kmh SSE 18.0 mph29.0 kmh 29.60 in1002.4 mb 0.01 in0.3 mm 0.00 in/hr0.0 mm/hr 0.01 in0.3 mm
06:10 AM 39.0°F3.9°C 37.2°F2.9°C 93% 6.0 mph SSE9.7 kmh SSE 14.0 mph22.5 kmh 29.61 in1002.7 mb 0.01 in0.3 mm 0.00 in/hr0.0 mm/hr 0.01 in0.3 mm
06:05 AM 39.0°F3.9°C 37.2°F2.9°C 93% 12.0 mph S19.3 kmh S 13.0 mph20.9 kmh 29.61 in1002.7 mb 0.01 in0.3 mm 0.00 in/hr0.0 mm/hr 0.01 in0.3 mm
06:00 AM 39.1°F3.9°C 37.3°F2.9°C 93% 4.0 mph SSE6.4 kmh SSE 13.0 mph20.9 kmh 29.61 in1002.7 mb 0.01 in0.3 mm 0.00 in/hr0.0 mm/hr 0.01 in0.3 mm
05:55 AM 39.1°F3.9°C 37.3°F2.9°C 93% 7.0 mph SE11.3 kmh SE 22.0 mph35.4 kmh 29.61 in1002.7 mb 0.01 in0.3 mm 0.12 in/hr3.0 mm/hr 0.01 in0.3 mm
05:50 AM 39.1°F3.9°C 37.3°F2.9°C 93% 7.0 mph ESE11.3 kmh ESE 16.0 mph25.7 kmh 29.61 in1002.7 mb 0.00 in0.0 mm 0.00 in/hr0.0 mm/hr 0.00 in0.0 mm
05:45 AM 39.2°F4.0°C 37.4°F3.0°C 93% 10.0 mph SE16.1 kmh SE 16.0 mph25.7 kmh 29.61 in1002.7 mb 0.00 in0.0 mm 0.00 in/hr0.0 mm/hr 0.00 in0.0 mm
05:40 AM 39.2°F4.0°C 37.4°F3.0°C 93% 14.0 mph SSE22.5 kmh SSE 16.0 mph25.7 kmh 29.61 in1002.7 mb 0.00 in0.0 mm 0.00 in/hr0.0 mm/hr 0.00 in0.0 mm
05:35 AM 39.2°F4.0°C 37.4°F3.0°C 93% 9.0 mph SE14.5 kmh SE 16.0 mph25.7 kmh 29.61 in1002.7 mb 0.00 in0.0 mm 0.00 in/hr0.0 mm/hr 0.00 in0.0 mm
05:30 AM 39.2°F4.0°C 37.4°F3.0°C 93% 6.0 mph SE9.7 kmh SE 16.0 mph25.7 kmh 29.61 in1002.7 mb 0.00 in0.0 mm 0.00 in/hr0.0 mm/hr 0.00 in0.0 mm
05:25 AM 39.2°F4.0°C 37.4°F3.0°C 93% 6.0 mph SSE9.7 kmh SSE 19.0 mph30.6 kmh 29.61 in1002.7 mb 0.00 in0.0 mm 0.00 in/hr0.0 mm/hr 0.00 in0.0 mm
05:20 AM 39.2°F4.0°C 37.4°F3.0°C 93% 8.0 mph SSE12.9 kmh SSE 17.0 mph27.4 kmh 29.61 in1002.7 mb 0.00 in0.0 mm 0.00 in/hr0.0 mm/hr 0.00 in0.0 mm
05:15 AM 39.2°F4.0°C 37.4°F3.0°C 93% 8.0 mph S12.9 kmh S 17.0 mph27.4 kmh 29.61 in1002.7 mb 0.00 in0.0 mm 0.00 in/hr0.0 mm/hr 0.00 in0.0 mm
05:10 AM 39.1°F3.9°C 37.3°F2.9°C 93% 10.0 mph S16.1 kmh S 14.0 mph22.5 kmh 29.61 in1002.7 mb 0.00 in0.0 mm 0.00 in/hr0.0 mm/hr 0.00 in0.0 mm
05:05 AM 39.1°F3.9°C 37.3°F2.9°C 93% 6.0 mph S9.7 kmh S 14.0 mph22.5 kmh 29.61 in1002.7 mb 0.00 in0.0 mm 0.00 in/hr0.0 mm/hr 0.00 in0.0 mm
05:00 AM 39.2°F4.0°C 37.4°F3.0°C 93% 4.0 mph SE6.4 kmh SE 14.0 mph22.5 kmh 29.61 in1002.7 mb 0.00 in0.0 mm 0.00 in/hr0.0 mm/hr 0.00 in0.0 mm
04:55 AM 39.2°F4.0°C 37.4°F3.0°C 93% 10.0 mph SE16.1 kmh SE 15.0 mph24.1 kmh 29.62 in1003.0 mb 0.00 in0.0 mm 0.00 in/hr0.0 mm/hr 0.00 in0.0 mm
04:50 AM 39.2°F4.0°C 37.4°F3.0°C 93% 5.0 mph SE8.0 kmh SE 15.0 mph24.1 kmh 29.62 in1003.0 mb 0.00 in0.0 mm 0.00 in/hr0.0 mm/hr 0.00 in0.0 mm
04:45 AM 39.2°F4.0°C 37.4°F3.0°C 93% 5.0 mph SSE8.0 kmh SSE 15.0 mph24.1 kmh 29.62 in1003.0 mb 0.00 in0.0 mm 0.00 in/hr0.0 mm/hr 0.00 in0.0 mm
04:40 AM 39.2°F4.0°C 37.4°F3.0°C 93% 8.0 mph SSE12.9 kmh SSE 15.0 mph24.1 kmh 29.62 in1003.0 mb 0.00 in0.0 mm 0.00 in/hr0.0 mm/hr 0.00 in0.0 mm
04:35 AM 39.2°F4.0°C 37.4°F3.0°C 93% 6.0 mph SE9.7 kmh SE 13.0 mph20.9 kmh 29.62 in1003.0 mb 0.00 in0.0 mm 0.00 in/hr0.0 mm/hr 0.00 in0.0 mm
04:30 AM 39.2°F4.0°C 37.4°F3.0°C 93% 5.0 mph SSE8.0 kmh SSE 12.0 mph19.3 kmh 29.62 in1003.0 mb 0.00 in0.0 mm 0.00 in/hr0.0 mm/hr 0.00 in0.0 mm
04:25 AM 39.3°F4.1°C 37.5°F3.1°C 93% 7.0 mph SE11.3 kmh SE 19.0 mph30.6 kmh 29.62 in1003.0 mb 0.00 in0.0 mm 0.00 in/hr0.0 mm/hr 0.00 in0.0 mm
04:20 AM 39.3°F4.1°C 37.5°F3.1°C 93% 6.0 mph SSE9.7 kmh SSE 19.0 mph30.6 kmh 29.62 in1003.0 mb 0.00 in0.0 mm 0.00 in/hr0.0 mm/hr 0.00 in0.0 mm
04:15 AM 39.3°F4.1°C 37.5°F3.1°C 93% 6.0 mph SSE9.7 kmh SSE 19.0 mph30.6 kmh 29.62 in1003.0 mb 0.00 in0.0 mm 0.00 in/hr0.0 mm/hr 0.00 in0.0 mm
04:10 AM 39.3°F4.1°C 37.5°F3.1°C 93% 7.0 mph SE11.3 kmh SE 15.0 mph24.1 kmh 29.62 in1003.0 mb 0.00 in0.0 mm 0.00 in/hr0.0 mm/hr 0.00 in0.0 mm
04:05 AM 39.3°F4.1°C 37.5°F3.1°C 93% 5.0 mph SE8.0 kmh SE 15.0 mph24.1 kmh 29.62 in1003.0 mb 0.00 in0.0 mm 0.00 in/hr0.0 mm/hr 0.00 in0.0 mm
04:00 AM 39.3°F4.1°C 37.5°F3.1°C 93% 6.0 mph SE9.7 kmh SE 12.0 mph19.3 kmh 29.62 in1003.0 mb 0.00 in0.0 mm 0.00 in/hr0.0 mm/hr 0.00 in0.0 mm
03:55 AM 39.3°F4.1°C 37.5°F3.1°C 93% 8.0 mph SE12.9 kmh SE 17.0 mph27.4 kmh 29.62 in1003.0 mb 0.00 in0.0 mm 0.00 in/hr0.0 mm/hr 0.00 in0.0 mm
03:50 AM 39.3°F4.1°C 37.5°F3.1°C 93% 9.0 mph SSE14.5 kmh SSE 17.0 mph27.4 kmh 29.63 in1003.4 mb 0.00 in0.0 mm 0.00 in/hr0.0 mm/hr 0.00 in0.0 mm
03:45 AM 39.3°F4.1°C 37.5°F3.1°C 93% 8.0 mph SE12.9 kmh SE 17.0 mph27.4 kmh 29.63 in1003.4 mb 0.00 in0.0 mm 0.00 in/hr0.0 mm/hr 0.00 in0.0 mm
03:40 AM 39.3°F4.1°C 37.5°F3.1°C 93% 10.0 mph SSE16.1 kmh SSE 17.0 mph27.4 kmh 29.63 in1003.4 mb 0.00 in0.0 mm 0.00 in/hr0.0 mm/hr 0.00 in0.0 mm
03:35 AM 39.3°F4.1°C 37.5°F3.1°C 93% 10.0 mph SE16.1 kmh SE 17.0 mph27.4 kmh 29.63 in1003.4 mb 0.00 in0.0 mm 0.00 in/hr0.0 mm/hr 0.00 in0.0 mm
03:30 AM 39.2°F4.0°C 37.4°F3.0°C 93% 10.0 mph SSE16.1 kmh SSE 17.0 mph27.4 kmh 29.64 in1003.7 mb 0.00 in0.0 mm 0.00 in/hr0.0 mm/hr 0.00 in0.0 mm
03:25 AM 39.2°F4.0°C 37.4°F3.0°C 93% 8.0 mph SE12.9 kmh SE 16.0 mph25.7 kmh 29.64 in1003.7 mb 0.00 in0.0 mm 0.00 in/hr0.0 mm/hr 0.00 in0.0 mm
03:20 AM 39.1°F3.9°C 37.3°F2.9°C 93% 8.0 mph SSE12.9 kmh SSE 16.0 mph25.7 kmh 29.64 in1003.7 mb 0.00 in0.0 mm 0.00 in/hr0.0 mm/hr 0.00 in0.0 mm
03:15 AM 39.1°F3.9°C 37.3°F2.9°C 93% 7.0 mph SE11.3 kmh SE 16.0 mph25.7 kmh 29.64 in1003.7 mb 0.00 in0.0 mm 0.00 in/hr0.0 mm/hr 0.00 in0.0 mm
03:10 AM 39.1°F3.9°C 37.3°F2.9°C 93% 5.0 mph S8.0 kmh S 16.0 mph25.7 kmh 29.64 in1003.7 mb 0.00 in0.0 mm 0.00 in/hr0.0 mm/hr 0.00 in0.0 mm
03:05 AM 39.0°F3.9°C 37.2°F2.9°C 93% 5.0 mph SE8.0 kmh SE 16.0 mph25.7 kmh 29.64 in1003.7 mb 0.00 in0.0 mm 0.00 in/hr0.0 mm/hr 0.00 in0.0 mm
03:00 AM 39.0°F3.9°C 37.2°F2.9°C 93% 4.0 mph SSE6.4 kmh SSE 16.0 mph25.7 kmh 29.64 in1003.7 mb 0.00 in0.0 mm 0.00 in/hr0.0 mm/hr 0.00 in0.0 mm
02:55 AM 39.0°F3.9°C 37.2°F2.9°C 93% 5.0 mph SE8.0 kmh SE 15.0 mph24.1 kmh 29.64 in1003.7 mb 0.00 in0.0 mm 0.00 in/hr0.0 mm/hr 0.00 in0.0 mm
02:50 AM 39.0°F3.9°C 37.2°F2.9°C 93% 6.0 mph SE9.7 kmh SE 15.0 mph24.1 kmh 29.64 in1003.7 mb 0.00 in0.0 mm 0.00 in/hr0.0 mm/hr 0.00 in0.0 mm
02:45 AM 39.0°F3.9°C 37.2°F2.9°C 93% 9.0 mph S14.5 kmh S 15.0 mph24.1 kmh 29.64 in1003.7 mb 0.00 in0.0 mm 0.00 in/hr0.0 mm/hr 0.00 in0.0 mm
02:40 AM 39.0°F3.9°C 37.2°F2.9°C 93% 10.0 mph SSE16.1 kmh SSE 15.0 mph24.1 kmh 29.64 in1003.7 mb 0.00 in0.0 mm 0.00 in/hr0.0 mm/hr 0.00 in0.0 mm
02:35 AM 39.0°F3.9°C 37.2°F2.9°C 93% 8.0 mph SE12.9 kmh SE 15.0 mph24.1 kmh 29.64 in1003.7 mb 0.00 in0.0 mm 0.00 in/hr0.0 mm/hr 0.00 in0.0 mm
02:30 AM 39.0°F3.9°C 37.2°F2.9°C 93% 5.0 mph SE8.0 kmh SE 14.0 mph22.5 kmh 29.64 in1003.7 mb 0.00 in0.0 mm 0.00 in/hr0.0 mm/hr 0.00 in0.0 mm
02:25 AM 39.0°F3.9°C 37.2°F2.9°C 93% 9.0 mph S14.5 kmh S 17.0 mph27.4 kmh 29.65 in1004.1 mb 0.00 in0.0 mm 0.00 in/hr0.0 mm/hr 0.00 in0.0 mm
02:20 AM 39.0°F3.9°C 37.2°F2.9°C 93% 7.0 mph S11.3 kmh S 17.0 mph27.4 kmh 29.64 in1003.7 mb 0.00 in0.0 mm 0.00 in/hr0.0 mm/hr 0.00 in0.0 mm
02:15 AM 39.0°F3.9°C 37.2°F2.9°C 93% 9.0 mph SE14.5 kmh SE 17.0 mph27.4 kmh 29.64 in1003.7 mb 0.00 in0.0 mm 0.00 in/hr0.0 mm/hr 0.00 in0.0 mm
02:10 AM 38.9°F3.8°C 37.1°F2.8°C 93% 5.0 mph SSE8.0 kmh SSE 17.0 mph27.4 kmh 29.65 in1004.1 mb 0.00 in0.0 mm 0.00 in/hr0.0 mm/hr 0.00 in0.0 mm
02:05 AM 38.9°F3.8°C 37.1°F2.8°C 93% 4.0 mph SSE6.4 kmh SSE 15.0 mph24.1 kmh 29.65 in1004.1 mb 0.00 in0.0 mm 0.00 in/hr0.0 mm/hr 0.00 in0.0 mm
02:00 AM 38.8°F3.8°C 37.0°F2.8°C 93% 5.0 mph SSE8.0 kmh SSE 10.0 mph16.1 kmh 29.65 in1004.1 mb 0.00 in0.0 mm 0.00 in/hr0.0 mm/hr 0.00 in0.0 mm
01:55 AM 38.8°F3.8°C 37.0°F2.8°C 93% 5.0 mph S8.0 kmh S 17.0 mph27.4 kmh 29.65 in1004.1 mb 0.00 in0.0 mm 0.00 in/hr0.0 mm/hr 0.00 in0.0 mm
01:50 AM 38.7°F3.7°C 36.9°F2.7°C 93% 4.0 mph SE6.4 kmh SE 17.0 mph27.4 kmh 29.65 in1004.1 mb 0.00 in0.0 mm 0.00 in/hr0.0 mm/hr 0.00 in0.0 mm
01:45 AM 38.7°F3.7°C 36.9°F2.7°C 93% 13.0 mph SE20.9 kmh SE 15.0 mph24.1 kmh 29.65 in1004.1 mb 0.00 in0.0 mm 0.00 in/hr0.0 mm/hr 0.00 in0.0 mm
01:40 AM 38.6°F3.7°C 36.8°F2.7°C 93% 6.0 mph S9.7 kmh S 15.0 mph24.1 kmh 29.65 in1004.1 mb 0.00 in0.0 mm 0.00 in/hr0.0 mm/hr 0.00 in0.0 mm
01:35 AM 38.6°F3.7°C 36.8°F2.7°C 93% 6.0 mph SE9.7 kmh SE 13.0 mph20.9 kmh 29.65 in1004.1 mb 0.00 in0.0 mm 0.00 in/hr0.0 mm/hr 0.00 in0.0 mm
01:30 AM 38.6°F3.7°C 36.8°F2.7°C 93% 7.0 mph S11.3 kmh S 11.0 mph17.7 kmh 29.66 in1004.4 mb 0.00 in0.0 mm 0.00 in/hr0.0 mm/hr 0.00 in0.0 mm
01:25 AM 38.6°F3.7°C 36.8°F2.7°C 93% 5.0 mph SSE8.0 kmh SSE 16.0 mph25.7 kmh 29.65 in1004.1 mb 0.00 in0.0 mm 0.00 in/hr0.0 mm/hr 0.00 in0.0 mm
01:20 AM 38.5°F3.6°C 36.7°F2.6°C 93% 8.0 mph S12.9 kmh S 16.0 mph25.7 kmh 29.65 in1004.1 mb 0.00 in0.0 mm 0.00 in/hr0.0 mm/hr 0.00 in0.0 mm
01:15 AM 38.5°F3.6°C 36.7°F2.6°C 93% 6.0 mph S9.7 kmh S 16.0 mph25.7 kmh 29.66 in1004.4 mb 0.00 in0.0 mm 0.00 in/hr0.0 mm/hr 0.00 in0.0 mm
01:10 AM 38.4°F3.6°C 36.6°F2.6°C 93% 10.0 mph S16.1 kmh S 16.0 mph25.7 kmh 29.66 in1004.4 mb 0.00 in0.0 mm 0.00 in/hr0.0 mm/hr 0.00 in0.0 mm
01:05 AM 38.4°F3.6°C 36.6°F2.6°C 93% 16.0 mph SE25.7 kmh SE 16.0 mph25.7 kmh 29.66 in1004.4 mb 0.00 in0.0 mm 0.00 in/hr0.0 mm/hr 0.00 in0.0 mm
01:00 AM 38.4°F3.6°C 36.6°F2.6°C 93% 5.0 mph SSE8.0 kmh SSE 14.0 mph22.5 kmh 29.66 in1004.4 mb 0.00 in0.0 mm 0.00 in/hr0.0 mm/hr 0.00 in0.0 mm
12:55 AM 38.4°F3.6°C 36.6°F2.6°C 93% 6.0 mph S9.7 kmh S 14.0 mph22.5 kmh 29.66 in1004.4 mb 0.00 in0.0 mm 0.00 in/hr0.0 mm/hr 0.00 in0.0 mm
12:50 AM 38.4°F3.6°C 36.6°F2.6°C 93% 5.0 mph SSE8.0 kmh SSE 14.0 mph22.5 kmh 29.66 in1004.4 mb 0.00 in0.0 mm 0.00 in/hr0.0 mm/hr 0.00 in0.0 mm
12:45 AM 38.3°F3.5°C 36.5°F2.5°C 93% 4.0 mph SE6.4 kmh SE 12.0 mph19.3 kmh 29.67 in1004.7 mb 0.00 in0.0 mm 0.00 in/hr0.0 mm/hr 0.00 in0.0 mm
12:40 AM 38.3°F3.5°C 36.5°F2.5°C 93% 4.0 mph SSE6.4 kmh SSE 12.0 mph19.3 kmh 29.67 in1004.7 mb 0.00 in0.0 mm 0.00 in/hr0.0 mm/hr 0.00 in0.0 mm
12:35 AM 38.2°F3.4°C 36.4°F2.4°C 93% 4.0 mph SE6.4 kmh SE 12.0 mph19.3 kmh 29.67 in1004.7 mb 0.00 in0.0 mm 0.00 in/hr0.0 mm/hr 0.00 in0.0 mm
12:30 AM 38.2°F3.4°C 36.4°F2.4°C 93% 4.0 mph SE6.4 kmh SE 9.0 mph14.5 kmh 29.67 in1004.7 mb 0.00 in0.0 mm 0.00 in/hr0.0 mm/hr 0.00 in0.0 mm
12:25 AM 38.1°F3.4°C 36.3°F2.4°C 93% 9.0 mph SE14.5 kmh SE 14.0 mph22.5 kmh 29.67 in1004.7 mb 0.00 in0.0 mm 0.00 in/hr0.0 mm/hr 0.00 in0.0 mm
12:20 AM 38.1°F3.4°C 36.3°F2.4°C 93% 8.0 mph SE12.9 kmh SE 14.0 mph22.5 kmh 29.67 in1004.7 mb 0.00 in0.0 mm 0.00 in/hr0.0 mm/hr 0.00 in0.0 mm
12:15 AM 38.0°F3.3°C 36.2°F2.3°C 93% 4.0 mph SE6.4 kmh SE 14.0 mph22.5 kmh 29.67 in1004.7 mb 0.00 in0.0 mm 0.00 in/hr0.0 mm/hr 0.00 in0.0 mm
12:10 AM 37.9°F3.3°C 36.1°F2.3°C 93% 6.0 mph SE9.7 kmh SE 14.0 mph22.5 kmh 29.68 in1005.1 mb 0.00 in0.0 mm 0.00 in/hr0.0 mm/hr 0.00 in0.0 mm
12:05 AM 37.9°F3.3°C 36.1°F2.3°C 93% 8.0 mph SE12.9 kmh SE 14.0 mph22.5 kmh 29.68 in1005.1 mb 0.00 in0.0 mm 0.00 in/hr0.0 mm/hr 0.00 in0.0 mm
12:00 AM 37.9°F3.3°C 36.1°F2.3°C 93% 10.0 mph SE16.1 kmh SE 14.0 mph22.5 kmh 29.68 in1005.1 mb 0.00 in0.0 mm 0.00 in/hr0.0 mm/hr 0.00 in0.0 mm